Time;durP1;ratioP1;P1;durP2;ratioP2;P2;SDS_P1;SDS_P2;PMS_P1;PMS_P2;Temp;Humidity;BMP_temperature;BMP_pressure;BME280_temperature;BME280_humidity;BME280_pressure;Samples;Min_cycle;Max_cycle;Signal;HPM_P1;HPM_P2
2023/04/02 00:00:18;;;;;;;8.90;2.30;;;;;;;0.12;100.00;99474.48;105904;1253;61890;-67
2023/04/02 00:03:43;;;;;;;9.10;2.40;;;;;;;0.10;100.00;99475.94;105758;1254;72877;-65
2023/04/02 00:06:43;;;;;;;8.70;2.90;;;;;;;0.09;100.00;99479.83;105914;1260;69481;-67
2023/04/02 00:09:36;;;;;;;10.20;3.20;;;;;;;0.08;100.00;99480.41;105612;1259;73153;-64
2023/04/02 00:12:24;;;;;;;7.80;2.10;;;;;;;0.08;100.00;99483.54;105645;1263;59261;-67
2023/04/02 00:15:13;;;;;;;9.60;1.90;;;;;;;0.09;100.00;99478.83;105740;1253;60930;-68
2023/04/02 00:18:04;;;;;;;7.70;2.20;;;;;;;0.11;100.00;99485.86;106199;1253;71888;-68
2023/04/02 00:21:13;;;;;;;6.10;1.50;;;;;;;0.13;100.00;99487.15;105778;1264;67212;-67
2023/04/02 00:24:13;;;;;;;6.30;1.50;;;;;;;0.17;100.00;99490.66;105556;1258;73539;-67
2023/04/02 00:27:01;;;;;;;6.20;1.60;;;;;;;0.21;99.73;99493.11;105705;1269;59422;-67
2023/04/02 00:29:53;;;;;;;8.00;1.60;;;;;;;0.24;98.52;99498.04;105773;1259;60775;-67
2023/04/02 00:32:44;;;;;;;8.20;2.00;;;;;;;0.28;98.04;99503.95;105697;1259;71357;-67
2023/04/02 00:35:38;;;;;;;6.30;1.50;;;;;;;0.30;96.97;99503.15;105876;1256;68921;-65
2023/04/02 00:38:33;;;;;;;6.90;1.50;;;;;;;0.33;96.58;99502.87;105784;1259;71555;-66
2023/04/02 00:41:29;;;;;;;6.20;1.40;;;;;;;0.35;96.49;99506.44;105849;1267;59318;-69
2023/04/02 00:44:22;;;;;;;5.00;1.20;;;;;;;0.37;95.59;99503.95;105648;1262;59382;-68
2023/04/02 00:47:33;;;;;;;4.90;1.30;;;;;;;0.39;95.44;99507.33;105854;1259;71881;-66
2023/04/02 00:50:39;;;;;;;5.10;1.60;;;;;;;0.41;94.98;99513.88;105741;1263;66441;-66
2023/04/02 00:53:30;;;;;;;6.20;1.40;;;;;;;0.42;94.15;99512.09;105693;1256;73039;-68
2023/04/02 00:56:30;;;;;;;6.30;1.40;;;;;;;0.43;94.68;99518.84;105893;1254;59966;-67
2023/04/02 00:59:30;;;;;;;6.90;1.30;;;;;;;0.43;95.46;99518.83;106004;1258;59151;-68
2023/04/02 01:02:31;;;;;;;6.50;1.40;;;;;;;0.42;96.08;99524.29;105804;1254;71776;-67
2023/04/02 01:05:22;;;;;;;5.90;1.20;;;;;;;0.41;96.27;99527.83;105717;1262;66987;-65
2023/04/02 01:08:51;;;;;;;5.90;1.40;;;;;;;0.41;96.18;99529.91;105693;1260;73969;-66
2023/04/02 01:11:59;;;;;;;4.60;1.20;;;;;;;0.43;95.94;99532.09;105907;1259;59247;-65
2023/04/02 01:15:50;;;;;;;8.90;1.40;;;;;;;0.46;95.58;99529.86;105722;1260;59894;-67
2023/04/02 01:19:12;;;;;;;7.00;1.30;;;;;;;0.48;94.46;99532.58;105143;1264;71949;-65
2023/04/02 01:22:00;;;;;;;6.00;1.40;;;;;;;0.51;93.78;99535.24;105282;1264;69113;-65
2023/04/02 01:24:49;;;;;;;6.80;1.70;;;;;;;0.53;94.16;99534.83;105149;1266;72986;-67
2023/04/02 01:28:09;;;;;;;5.00;1.40;;;;;;;0.53;93.99;99540.73;105141;1268;59367;-67
2023/04/02 01:31:01;;;;;;;5.90;1.50;;;;;;;0.53;93.94;99542.48;105161;1269;60893;-66
2023/04/02 01:33:49;;;;;;;6.00;1.90;;;;;;;0.54;92.99;99541.41;104823;1262;71913;-67
2023/04/02 01:37:10;;;;;;;5.30;1.50;;;;;;;0.55;93.20;99544.33;105180;1269;68497;-66
2023/04/02 01:40:11;;;;;;;6.30;1.50;;;;;;;0.58;93.44;99547.66;105161;1268;72320;-65
2023/04/02 01:43:15;;;;;;;6.50;1.50;;;;;;;0.60;93.06;99551.08;105158;1268;59444;-67
2023/04/02 01:46:24;;;;;;;6.10;1.60;;;;;;;0.61;93.39;99556.27;105237;1268;61990;-68
2023/04/02 01:49:17;;;;;;;6.80;1.50;;;;;;;0.62;93.50;99561.13;105194;1266;70109;-67
2023/04/02 01:52:06;;;;;;;6.90;1.40;;;;;;;0.62;92.39;99562.52;105935;1266;69597;-65
2023/04/02 01:54:56;;;;;;;6.20;1.60;;;;;;;0.64;92.64;99569.02;106235;1259;72911;-68
2023/04/02 01:57:52;;;;;;;6.10;1.40;;;;;;;0.66;92.88;99569.63;106235;1260;59212;-67
2023/04/02 02:00:54;;;;;;;7.50;1.30;;;;;;;0.66;91.32;99574.71;105753;1260;61842;-68
2023/04/02 02:03:44;;;;;;;6.60;1.30;;;;;;;0.68;90.59;99573.95;105879;1260;71774;-66
2023/04/02 02:06:32;;;;;;;6.30;1.30;;;;;;;0.69;90.95;99575.99;105804;1260;68510;-64
2023/04/02 02:09:25;;;;;;;5.40;1.20;;;;;;;0.72;90.39;99585.48;105618;1254;72129;-65
2023/04/02 02:12:15;;;;;;;4.80;1.30;;;;;;;0.74;90.73;99588.73;105554;1263;59240;-67
2023/04/02 02:15:12;;;;;;;6.40;1.50;;;;;;;0.71;89.82;99587.77;105890;1260;59351;-67
2023/04/02 02:18:10;;;;;;;6.00;1.30;;;;;;;0.72;89.88;99595.42;105719;1263;71670;-67
2023/04/02 02:21:03;;;;;;;5.50;1.30;;;;;;;0.73;90.18;99599.23;105609;1262;68405;-67
2023/04/02 02:23:55;;;;;;;5.10;1.20;;;;;;;0.76;90.51;99603.45;105759;1256;72094;-70
2023/04/02 02:26:46;;;;;;;4.70;1.10;;;;;;;0.78;90.07;99605.63;105646;1260;59328;-67
2023/04/02 02:29:39;;;;;;;6.20;1.40;;;;;;;0.79;90.44;99612.55;105875;1261;59720;-66
2023/04/02 02:32:32;;;;;;;6.90;1.40;;;;;;;0.80;90.01;99614.80;105916;1258;70945;-65
2023/04/02 02:35:27;;;;;;;6.40;1.70;;;;;;;0.79;89.89;99619.19;105686;1259;69284;-65
2023/04/02 02:38:37;;;;;;;4.50;1.00;;;;;;;0.81;90.09;99618.40;105612;1257;71608;-67
2023/04/02 02:41:44;;;;;;;6.30;1.30;;;;;;;0.82;89.96;99622.39;105721;1261;60246;-67
2023/04/02 02:44:40;;;;;;;5.20;1.30;;;;;;;0.85;90.43;99625.05;105756;1261;60569;-67
2023/04/02 02:47:33;;;;;;;7.60;2.00;;;;;;;0.87;90.16;99621.30;105745;1254;71882;-66
2023/04/02 02:50:30;;;;;;;6.00;1.50;;;;;;;0.87;90.29;99626.02;105395;1263;68547;-61
2023/04/02 02:53:23;;;;;;;5.60;1.20;;;;;;;0.86;90.44;99626.43;105337;1266;73374;-67
2023/04/02 02:56:14;;;;;;;6.30;1.30;;;;;;;0.86;89.87;99632.88;105321;1266;59451;-66
2023/04/02 02:59:07;;;;;;;6.30;1.40;;;;;;;0.88;90.07;99636.98;105497;1264;61874;-66
2023/04/02 03:02:07;;;;;;;5.00;1.40;;;;;;;0.90;89.99;99642.67;105766;1265;73023;-66
2023/04/02 03:05:16;;;;;;;5.10;1.20;;;;;;;0.83;89.68;99631.80;105699;1271;69027;-67
2023/04/02 03:08:29;;;;;;;7.50;1.30;;;;;;;0.92;90.08;99649.92;105403;1264;72970;-66
2023/04/02 03:11:43;;;;;;;5.70;1.30;;;;;;;0.93;90.53;99652.46;105239;1263;59438;-63
2023/04/02 03:14:47;;;;;;;6.90;1.50;;;;;;;0.95;90.25;99661.48;105261;1269;59552;-65
2023/04/02 03:17:47;;;;;;;7.70;1.50;;;;;;;0.94;89.63;99663.79;105379;1267;72102;-71
2023/04/02 03:20:57;;;;;;;7.50;1.60;;;;;;;0.94;90.21;99669.56;105165;1269;67084;-64
2023/04/02 03:23:52;;;;;;;7.50;1.40;;;;;;;0.95;90.06;99667.79;105417;1267;73201;-66
2023/04/02 03:27:05;;;;;;;5.40;1.10;;;;;;;0.93;89.06;99671.53;105559;1261;59936;-66
2023/04/02 03:30:46;;;;;;;6.40;1.60;;;;;;;0.93;88.79;99670.30;105568;1260;59322;-65
2023/04/02 03:33:46;;;;;;;4.10;1.10;;;;;;;0.93;89.27;99677.80;105684;1257;72652;-65
2023/04/02 03:36:50;;;;;;;7.40;1.50;;;;;;;0.94;89.54;99680.40;105751;1261;67329;-66
2023/04/02 03:39:54;;;;;;;5.30;1.30;;;;;;;0.93;89.64;99679.55;105484;1258;70927;-68
2023/04/02 03:43:17;;;;;;;5.90;1.50;;;;;;;0.95;89.88;99686.09;105716;1264;59339;-67
2023/04/02 03:46:27;;;;;;;5.00;1.40;;;;;;;0.96;89.55;99693.55;105631;1254;60256;-67
2023/04/02 03:49:33;;;;;;;9.80;1.90;;;;;;;0.97;89.56;99699.44;105827;1260;72516;-66
2023/04/02 03:52:28;;;;;;;6.80;1.70;;;;;;;0.99;89.86;99701.14;105794;1254;68417;-68
2023/04/02 03:55:24;;;;;;;7.90;1.50;;;;;;;0.99;90.23;99705.48;105666;1255;73146;-68
2023/04/02 03:58:26;;;;;;;6.80;1.80;;;;;;;0.98;90.36;99711.10;105404;1254;59334;-68
2023/04/02 04:02:06;;;;;;;6.10;1.40;;;;;;;0.99;90.12;99719.48;105775;1254;59513;-67
2023/04/02 04:04:57;;;;;;;6.30;1.50;;;;;;;0.98;89.23;99726.34;106113;1254;72756;-68
2023/04/02 04:07:49;;;;;;;5.30;1.30;;;;;;;0.98;88.48;99724.94;105729;1263;66649;-65
2023/04/02 04:10:42;;;;;;;6.60;1.60;;;;;;;0.98;88.43;99733.33;104932;1254;1002862;-67
2023/04/02 04:13:45;;;;;;;6.10;1.30;;;;;;;0.96;88.21;99737.42;105704;1254;59375;-67
2023/04/02 04:17:22;;;;;;;6.30;1.30;;;;;;;0.96;88.21;99745.27;105508;1254;60087;-66
2023/04/02 04:20:27;;;;;;;5.40;1.50;;;;;;;0.99;88.23;99751.46;105979;1258;74386;-65
2023/04/02 04:23:31;;;;;;;6.80;1.40;;;;;;;1.00;88.22;99759.11;105675;1254;68570;-66
2023/04/02 04:26:33;;;;;;;5.90;1.70;;;;;;;1.00;87.48;99761.89;105282;1264;74851;-69
2023/04/02 04:29:57;;;;;;;6.50;1.30;;;;;;;1.01;87.73;99763.59;105323;1263;59451;-66
2023/04/02 04:33:21;;;;;;;5.60;1.30;;;;;;;1.00;87.19;99773.74;105383;1263;59787;-65
2023/04/02 04:36:30;;;;;;;5.60;1.80;;;;;;;1.02;87.14;99775.97;105290;1261;74096;-66
2023/04/02 04:39:33;;;;;;;5.40;1.30;;;;;;;1.02;87.53;99780.66;105432;1263;68029;-67
2023/04/02 04:42:34;;;;;;;6.40;1.40;;;;;;;1.00;87.04;99788.44;105358;1264;72632;-63
2023/04/02 04:45:39;;;;;;;5.80;1.50;;;;;;;1.00;87.10;99788.44;105336;1265;59450;-63
2023/04/02 04:48:41;;;;;;;5.50;1.30;;;;;;;1.00;86.93;99791.24;105539;1261;61826;-66
2023/04/02 04:51:45;;;;;;;8.20;2.00;;;;;;;1.03;87.59;99792.16;105927;1261;71476;-68
2023/04/02 04:54:38;;;;;;;7.90;1.80;;;;;;;1.09;87.90;99803.63;105806;1267;67321;-67
2023/04/02 04:57:35;;;;;;;5.30;1.40;;;;;;;1.09;88.12;99809.37;106040;1254;73132;-69
2023/04/02 05:00:49;;;;;;;8.80;1.60;;;;;;;1.12;88.59;99816.95;105694;1259;59643;-66
2023/04/02 05:04:04;;;;;;;5.10;1.30;;;;;;;1.09;88.61;99814.29;105721;1260;59392;-65
2023/04/02 05:07:06;;;;;;;6.50;1.40;;;;;;;1.09;88.52;99826.85;105784;1259;72539;-66
2023/04/02 05:10:29;;;;;;;6.90;1.30;;;;;;;1.10;88.30;99828.39;105455;1260;66458;-66
2023/04/02 05:13:33;;;;;;;9.80;1.50;;;;;;;1.10;88.64;99826.30;106079;1261;71112;-76
2023/04/02 05:16:53;;;;;;;6.00;1.60;;;;;;;1.12;89.11;99829.16;105912;1264;59357;-77
2023/04/02 05:19:52;;;;;;;7.90;2.00;;;;;;;1.14;88.93;99832.92;106043;1262;60101;-76
2023/04/02 05:23:57;;;;;;;6.10;1.90;;;;;;;1.22;89.33;99840.83;103205;1291;615197;-74
2023/04/02 05:26:49;;;;;;;5.70;1.60;;;;;;;1.27;89.17;99850.74;105410;1269;59296;-77
2023/04/02 05:29:44;;;;;;;7.90;1.90;;;;;;;1.29;88.49;99843.13;105125;1272;62374;-65
2023/04/02 05:32:46;;;;;;;6.70;2.10;;;;;;;1.35;88.23;99849.70;104815;1269;69826;-68
2023/04/02 05:35:40;;;;;;;7.30;1.90;;;;;;;1.34;87.66;99857.59;104916;1277;241586;-68
2023/04/02 05:38:32;;;;;;;5.80;1.80;;;;;;;1.29;87.41;99861.33;104749;1271;73464;-67
2023/04/02 05:41:38;;;;;;;5.90;1.30;;;;;;;1.28;87.75;99866.94;105287;1267;59424;-67
2023/04/02 05:44:33;;;;;;;6.50;1.50;;;;;;;1.30;87.50;99870.38;105599;1265;60867;-66
2023/04/02 05:47:31;;;;;;;6.50;1.70;;;;;;;1.33;87.80;99881.07;105441;1263;72060;-67
2023/04/02 05:50:47;;;;;;;6.70;1.80;;;;;;;1.35;87.67;99883.25;105334;1267;69196;-66
2023/04/02 05:53:55;;;;;;;6.80;1.60;;;;;;;1.36;86.97;99891.10;105125;1271;73204;-69
2023/04/02 05:56:49;;;;;;;6.90;1.50;;;;;;;1.37;86.96;99894.52;105322;1269;59208;-67
2023/04/02 05:59:46;;;;;;;6.40;1.50;;;;;;;1.37;86.56;99897.66;105275;1272;60224;-68
2023/04/02 06:03:06;;;;;;;6.40;1.60;;;;;;;1.40;86.39;99905.45;105562;1267;70950;-69
2023/04/02 06:06:04;;;;;;;5.20;1.50;;;;;;;1.39;86.25;99910.55;105511;1269;66916;-69
2023/04/02 06:09:11;;;;;;;5.90;1.90;;;;;;;1.44;86.94;99914.00;105450;1263;71970;-69
2023/04/02 06:12:37;;;;;;;6.80;1.50;;;;;;;1.51;87.03;99917.91;105338;1266;59320;-67
2023/04/02 06:15:26;;;;;;;6.30;1.60;;;;;;;1.56;86.17;99923.80;104841;1274;61486;-67
2023/04/02 06:18:24;;;;;;;8.60;1.80;;;;;;;1.59;85.32;99923.16;104630;1275;72111;-68
2023/04/02 06:21:17;;;;;;;6.20;1.60;;;;;;;1.64;85.24;99929.96;104537;1277;68471;-66
2023/04/02 06:24:19;;;;;;;6.20;1.50;;;;;;;1.66;85.11;99936.32;104813;1274;71613;-68
2023/04/02 06:27:11;;;;;;;6.70;1.80;;;;;;;1.69;85.07;99934.81;104860;1277;59765;-68
2023/04/02 06:30:06;;;;;;;7.10;1.80;;;;;;;1.73;85.23;99943.41;105000;1273;59602;-67
2023/04/02 06:32:53;;;;;;;5.10;1.40;;;;;;;1.71;84.53;99942.23;105508;1264;71880;-65
2023/04/02 06:36:23;;;;;;;7.00;1.50;;;;;;;1.77;84.52;99952.64;102801;1291;603632;-65
2023/04/02 06:39:21;;;;;;;7.30;1.80;;;;;;;1.79;84.41;99963.58;105168;1267;59344;-67
2023/04/02 06:42:21;;;;;;;8.80;2.00;;;;;;;1.81;84.60;99973.27;104911;1267;59992;-66
2023/04/02 06:45:42;;;;;;;7.90;1.70;;;;;;;1.86;84.95;99982.00;105231;1272;70750;-67
2023/04/02 06:49:06;;;;;;;6.90;2.00;;;;;;;1.91;84.37;99985.67;105120;1272;207960;-67
2023/04/02 06:51:57;;;;;;;6.20;1.70;;;;;;;1.87;82.93;99989.52;105475;1264;71969;-65
2023/04/02 06:54:46;;;;;;;8.10;1.60;;;;;;;1.89;83.41;99997.98;105266;1273;59343;-66
2023/04/02 06:57:34;;;;;;;6.20;1.70;;;;;;;1.96;82.70;100002.58;105464;1263;60703;-67
2023/04/02 07:00:41;;;;;;;6.70;1.70;;;;;;;2.07;82.60;100011.39;105141;1264;70076;-66
2023/04/02 07:03:36;;;;;;;6.90;1.60;;;;;;;2.25;81.39;100015.67;105151;1266;68538;-67
2023/04/02 07:07:05;;;;;;;5.40;1.40;;;;;;;2.34;80.39;100016.33;105748;1259;72800;-63
2023/04/02 07:09:56;;;;;;;6.10;1.60;;;;;;;2.40;79.87;100015.89;105197;1262;59346;-62
2023/04/02 07:12:43;;;;;;;6.10;1.80;;;;;;;2.41;78.65;100014.84;105362;1262;59877;-66
2023/04/02 07:15:31;;;;;;;7.40;1.70;;;;;;;2.46;78.42;100016.52;106207;1254;71682;-66
2023/04/02 07:18:30;;;;;;;6.60;2.00;;;;;;;2.60;78.85;100025.37;106176;1259;68372;-68
2023/04/02 07:21:20;;;;;;;6.20;1.50;;;;;;;2.80;78.57;100023.21;105785;1254;72131;-67
2023/04/02 07:24:29;;;;;;;6.60;1.90;;;;;;;2.93;77.57;100021.23;106259;1254;59426;-67
2023/04/02 07:27:25;;;;;;;6.20;1.40;;;;;;;3.10;76.47;100036.03;105985;1256;60527;-65
2023/04/02 07:30:12;;;;;;;6.80;1.70;;;;;;;3.16;75.24;100038.02;105976;1251;71944;-71
2023/04/02 07:33:04;;;;;;;7.40;1.70;;;;;;;3.30;74.64;100042.45;106594;1251;66459;-66
2023/04/02 07:35:53;;;;;;;7.80;1.60;;;;;;;3.44;74.47;100053.34;106092;1258;72628;-68
2023/04/02 07:38:41;;;;;;;6.70;1.40;;;;;;;3.43;73.43;100047.07;106384;1257;59253;-67
2023/04/02 07:41:29;;;;;;;8.40;1.60;;;;;;;3.48;73.32;100057.73;106438;1251;60706;-65
2023/04/02 07:44:16;;;;;;;6.70;1.70;;;;;;;3.53;73.35;100063.45;106288;1255;72142;-69
2023/04/02 07:47:03;;;;;;;8.60;2.10;;;;;;;3.61;73.54;100068.68;106638;1258;69435;-66
2023/04/02 07:49:53;;;;;;;6.50;1.60;;;;;;;3.59;72.47;100077.20;106664;1251;74069;-68
2023/04/02 07:52:41;;;;;;;5.80;1.40;;;;;;;3.62;71.88;100077.75;106721;1257;59119;-70
2023/04/02 07:55:30;;;;;;;7.90;1.50;;;;;;;3.70;71.62;100084.70;106109;1259;59288;-67
2023/04/02 07:58:18;;;;;;;5.40;1.20;;;;;;;3.66;69.72;100086.86;106717;1254;72067;-65
2023/04/02 08:01:24;;;;;;;6.30;1.50;;;;;;;3.67;70.40;100090.83;106507;1258;68253;-68
2023/04/02 08:04:29;;;;;;;6.70;1.60;;;;;;;3.75;70.44;100095.16;106327;1251;72430;-69
2023/04/02 08:07:17;;;;;;;6.80;1.50;;;;;;;3.82;70.74;100108.00;106341;1251;59211;-66
2023/04/02 08:10:11;;;;;;;6.80;1.50;;;;;;;3.90;71.01;100110.25;106553;1251;60104;-69
2023/04/02 08:13:00;;;;;;;10.30;1.70;;;;;;;3.83;69.02;100118.85;106188;1257;72715;-70
2023/04/02 08:15:47;;;;;;;6.90;1.60;;;;;;;3.86;69.18;100115.02;106232;1254;67974;-69
2023/04/02 08:18:36;;;;;;;6.90;1.70;;;;;;;4.08;70.07;100112.52;106102;1254;73259;-71
2023/04/02 08:21:24;;;;;;;6.40;1.50;;;;;;;4.35;68.31;100123.27;106367;1256;59269;-69
2023/04/02 08:24:17;;;;;;;8.30;1.40;;;;;;;4.51;66.81;100128.61;106066;1260;59307;-65
2023/04/02 08:27:13;;;;;;;5.30;1.40;;;;;;;4.66;65.51;100125.55;106551;1255;70724;-65
2023/04/02 08:30:01;;;;;;;7.70;1.60;;;;;;;5.03;65.39;100135.23;105992;1254;68269;-65
2023/04/02 08:32:48;;;;;;;7.10;2.00;;;;;;;5.57;63.26;100135.46;106220;1252;72112;-64
2023/04/02 08:35:35;;;;;;;6.90;1.90;;;;;;;6.89;59.54;100133.11;105684;1254;60211;-67
2023/04/02 08:38:24;;;;;;;6.40;1.50;;;;;;;7.91;56.57;100132.16;106007;1259;60765;-64
2023/04/02 08:41:26;;;;;;;6.10;1.60;;;;;;;8.78;52.83;100126.51;106601;1251;70612;-66
2023/04/02 08:44:35;;;;;;;6.40;1.70;;;;;;;9.60;49.41;100134.04;106037;1254;68531;-68
2023/04/02 08:47:28;;;;;;;6.90;1.40;;;;;;;10.13;48.66;100128.98;106073;1257;71788;-66
2023/04/02 08:50:35;;;;;;;5.50;1.50;;;;;;;11.14;46.05;100130.66;106159;1257;59798;-65
2023/04/02 08:53:29;;;;;;;6.30;1.40;;;;;;;12.16;42.67;100123.49;105928;1259;61792;-67
2023/04/02 08:56:50;;;;;;;6.50;1.50;;;;;;;13.65;39.81;100132.42;106056;1254;70587;-67
2023/04/02 08:59:42;;;;;;;6.50;1.40;;;;;;;13.62;37.13;100141.86;105774;1255;68444;-68
2023/04/02 09:02:56;;;;;;;6.00;1.10;;;;;;;14.49;36.26;100143.42;106216;1257;73170;-68
2023/04/02 09:05:46;;;;;;;7.80;1.40;;;;;;;14.88;34.71;100146.59;106104;1259;59333;-67
2023/04/02 09:08:34;;;;;;;5.60;1.20;;;;;;;14.51;34.79;100155.72;106286;1256;60910;-67
2023/04/02 09:11:40;;;;;;;6.60;1.40;;;;;;;14.71;34.41;100148.22;106348;1252;72020;-66
2023/04/02 09:15:17;;;;;;;6.10;1.30;;;;;;;14.73;34.38;100153.23;105862;1256;68226;-67
2023/04/02 09:18:16;;;;;;;5.40;1.20;;;;;;;14.87;34.25;100168.37;105593;1257;71996;-66
2023/04/02 09:21:40;;;;;;;6.70;1.10;;;;;;;14.41;34.01;100177.16;106122;1259;59224;-69
2023/04/02 09:24:27;;;;;;;5.90;1.10;;;;;;;14.05;34.33;100182.79;105827;1257;60227;-66
2023/04/02 09:27:22;;;;;;;6.80;1.80;;;;;;;13.94;35.93;100188.56;105977;1254;73040;-68
2023/04/02 09:30:12;;;;;;;5.90;1.30;;;;;;;13.95;34.83;100196.34;106163;1254;68319;-69
2023/04/02 09:33:08;;;;;;;5.20;1.30;;;;;;;13.52;34.67;100204.77;106503;1251;73125;-68
2023/04/02 09:35:56;;;;;;;6.30;1.20;;;;;;;13.22;35.58;100206.62;106199;1258;59291;-65
2023/04/02 09:39:00;;;;;;;6.10;1.20;;;;;;;13.73;35.49;100214.46;106277;1257;60549;-67
2023/04/02 09:41:48;;;;;;;7.30;2.10;;;;;;;13.82;35.09;100229.41;106040;1256;70783;-65
2023/04/02 09:44:51;;;;;;;5.70;1.50;;;;;;;14.36;33.35;100225.46;105767;1256;67594;-66
2023/04/02 09:47:40;;;;;;;5.90;1.20;;;;;;;15.25;31.69;100222.58;106156;1253;72158;-67
2023/04/02 09:50:32;;;;;;;5.50;1.00;;;;;;;15.53;30.64;100223.17;106109;1259;59228;-66
2023/04/02 09:53:32;;;;;;;6.10;1.30;;;;;;;16.12;29.54;100226.09;105804;1256;59739;-67
2023/04/02 09:56:23;;;;;;;5.90;1.00;;;;;;;16.22;29.25;100218.33;105889;1254;72063;-68
2023/04/02 09:59:12;;;;;;;5.40;1.10;;;;;;;16.91;28.83;100229.50;106225;1256;68235;-68
2023/04/02 10:02:02;;;;;;;5.30;1.10;;;;;;;17.21;27.60;100239.41;105816;1251;72133;-67
2023/04/02 10:04:50;;;;;;;4.80;1.00;;;;;;;16.52;27.35;100251.13;105805;1255;59166;-66
2023/04/02 10:07:48;;;;;;;4.60;0.90;;;;;;;17.09;27.38;100262.98;106308;1259;62639;-68
2023/04/02 10:10:45;;;;;;;5.20;1.00;;;;;;;17.02;26.47;100261.79;105619;1257;71452;-69
2023/04/02 10:13:55;;;;;;;6.60;1.20;;;;;;;16.95;26.36;100274.83;105978;1260;67148;-65
2023/04/02 10:17:23;;;;;;;6.40;1.10;;;;;;;17.60;26.70;100277.86;106274;1256;73308;-68
2023/04/02 10:20:25;;;;;;;5.10;1.00;;;;;;;17.69;24.55;100287.66;106161;1257;59313;-66
2023/04/02 10:23:17;;;;;;;7.80;1.20;;;;;;;17.82;24.92;100288.87;105977;1257;60614;-66
2023/04/02 10:26:37;;;;;;;6.20;1.30;;;;;;;18.00;25.07;100285.94;106360;1252;71965;-64
2023/04/02 10:29:50;;;;;;;5.60;1.40;;;;;;;18.30;24.66;100289.81;105903;1260;68188;-66
2023/04/02 10:32:55;;;;;;;6.20;1.50;;;;;;;18.64;24.58;100294.84;105682;1263;73163;-68
2023/04/02 10:36:20;;;;;;;6.90;1.60;;;;;;;18.94;23.83;100293.77;105426;1262;59429;-68
2023/04/02 10:39:26;;;;;;;6.80;1.40;;;;;;;18.49;24.14;100305.36;105464;1266;60578;-68
2023/04/02 10:42:43;;;;;;;5.20;1.30;;;;;;;18.57;24.27;100306.73;105621;1263;72063;-67
2023/04/02 10:45:48;;;;;;;5.20;1.20;;;;;;;18.03;24.47;100321.83;105495;1261;68553;-67
2023/04/02 10:48:56;;;;;;;5.00;1.30;;;;;;;17.45;25.48;100331.05;105731;1265;72051;-65
2023/04/02 10:52:12;;;;;;;6.10;1.30;;;;;;;17.38;25.48;100333.00;105745;1263;59692;-66
2023/04/02 10:55:33;;;;;;;8.50;3.60;;;;;;;16.98;24.99;100342.98;105909;1268;60919;-68
2023/04/02 10:58:28;;;;;;;5.90;2.00;;;;;;;16.67;26.18;100337.92;105453;1266;70651;-67
2023/04/02 11:01:22;;;;;;;5.50;1.20;;;;;;;16.57;27.10;100348.96;105407;1264;68383;-67
2023/04/02 11:04:45;;;;;;;5.30;1.00;;;;;;;16.94;25.91;100354.86;105304;1267;73777;-69
2023/04/02 11:07:52;;;;;;;5.80;1.20;;;;;;;15.97;26.29;100357.44;105386;1267;59328;-66
2023/04/02 11:10:46;;;;;;;8.50;1.40;;;;;;;15.76;27.22;100366.26;105558;1257;60128;-67
2023/04/02 11:13:48;;;;;;;6.60;1.30;;;;;;;15.57;27.74;100378.37;105906;1260;71034;-67
2023/04/02 11:16:36;;;;;;;5.10;1.20;;;;;;;14.40;28.96;100382.31;105779;1260;68354;-66
2023/04/02 11:19:31;;;;;;;5.10;1.30;;;;;;;14.25;29.55;100388.55;105678;1263;72590;-67
2023/04/02 11:22:23;;;;;;;7.40;1.30;;;;;;;14.23;30.06;100385.98;105544;1271;59223;-67
2023/04/02 11:25:21;;;;;;;5.80;1.40;;;;;;;14.24;30.35;100384.15;105626;1257;59545;-69
2023/04/02 11:28:30;;;;;;;5.40;1.30;;;;;;;14.60;29.72;100394.71;105891;1260;71789;-66
2023/04/02 11:31:20;;;;;;;6.80;1.40;;;;;;;13.96;29.76;100400.07;106036;1260;69368;-66
2023/04/02 11:34:39;;;;;;;6.10;1.30;;;;;;;12.63;30.91;100405.05;105726;1260;72016;-67
2023/04/02 11:37:46;;;;;;;7.60;2.20;;;;;;;12.47;32.37;100400.53;106212;1259;59295;-69
2023/04/02 11:40:56;;;;;;;6.70;1.50;;;;;;;13.06;32.18;100404.64;105976;1260;61877;-65
2023/04/02 11:43:48;;;;;;;8.50;1.90;;;;;;;12.06;32.50;100413.34;105419;1257;71372;-65
